Lady Maria Luisa — 3ENE4 — position and weather

sailwx.info

Track history (hours):
 
Tides and Currents Weather Stations Pressure Air Temp Water Temp Dewpoint Dewpoint Depression Visibility Wind Speed Wind Dir Waves Ship Positions

Lady Maria Luisa

Last reported at 2014-Oct-20 10:30 UTC. Time now 2014-Oct-20 11:32 UTC.
Position N 22°58' E 113°33'.

Length 224 m; draft 12 m.

Type: Cargo ship. MMSI: 355777000.

Date/timePositionNaut miles runAvg speedWind from/ knotsBaromVisibWave heightAir tempDewpointWater temp
2014-Oct-20 10:30N 22°58' E 113°33'0 0.1
2014-Oct-20 09:30N 22°58' E 113°33'0 0.1
2014-Oct-20 08:30N 22°58' E 113°33'0 0.1
2014-Oct-20 07:30N 22°58' E 113°33'0 0.0
2014-Oct-20 06:30N 22°58' E 113°33'0 0.1
2014-Oct-20 05:24N 22°58' E 113°33'0 0.0
2014-Oct-20 04:30N 22°58' E 113°33'0 0.0
2014-Oct-20 03:24N 22°58' E 113°33'0 0.0
2014-Oct-20 02:30N 22°58' E 113°33'0 0.0
2014-Oct-20 01:30N 22°58' E 113°33'0 0.0
2014-Oct-20 00:30N 22°58' E 113°33'0 0.0
2014-Oct-19 23:18N 22°58' E 113°33'0 0.0
2014-Oct-19 21:24N 22°58' E 113°33'0 0.0
2014-Oct-19 20:30N 22°58' E 113°33'0 0.1
2014-Oct-19 19:24N 22°58' E 113°33'0 0.0
2014-Oct-19 18:30N 22°58' E 113°33'0 0.0
2014-Oct-19 17:30N 22°58' E 113°33'0 0.0
2014-Oct-19 16:33N 22°58' E 113°33'0 0.0
2014-Oct-19 15:33N 22°58' E 113°33'0 0.0
2014-Oct-19 14:33N 22°58' E 113°33'0 0.1
2014-Oct-19 13:33N 22°58' E 113°33'0 0.0
2014-Oct-19 12:32N 22°58' E 113°33'0 0.1
2014-Oct-19 11:33N 22°58' E 113°33'0 0.1
2014-Oct-19 10:33N 22°58' E 113°33'0 0.0
2014-Oct-19 09:33N 22°58' E 113°33'0 0.1
2014-Oct-19 08:33N 22°58' E 113°33'0 0.1
2014-Oct-19 07:32N 22°58' E 113°33'0 0.0
2014-Oct-19 06:33N 22°58' E 113°33'0 0.1
2014-Oct-19 05:33N 22°58' E 113°33'0 0.0
2014-Oct-19 04:33N 22°58' E 113°33'0 0.0
2014-Oct-19 03:33N 22°58' E 113°33'0 0.0
2014-Oct-19 02:33N 22°58' E 113°33'0 0.3
2014-Oct-19 01:33N 22°58' E 113°32'7 7.3
2014-Oct-19 00:33N 22°51' E 113°34'9 8.8
2014-Oct-18 23:33N 22°44' E 113°40'1610.4
2014-Oct-18 22:03N 22°29' E 113°45'611.7
2014-Oct-18 21:32N 22°23' E 113°46'1111.2
2014-Oct-18 20:33N 22°12' E 113°50'8 7.8
2014-Oct-18 19:33N 22°05' E 113°52'1 1.3
2014-Oct-18 18:33N 22°05' E 113°54'0 0.0
2014-Oct-18 16:33N 22°05' E 113°54'0 0.0
2014-Oct-18 15:33N 22°05' E 113°54'0 0.0
2014-Oct-18 14:33N 22°05' E 113°54'0 0.0
2014-Oct-18 13:21N 22°05' E 113°54'0 0.0
2014-Oct-18 09:33N 22°05' E 113°54'0 0.0
2014-Oct-18 08:33N 22°05' E 113°54'0 0.0
2014-Oct-18 05:27N 22°05' E 113°54'0 0.0
2014-Oct-18 04:33N 22°05' E 113°54'0 0.1
2014-Oct-18 03:21N 22°05' E 113°54'1 0.8
2014-Oct-18 02:33N 22°06' E 113°54'  
Track history (hours):
 
Tides and Currents Weather Stations Pressure Air Temp Water Temp Dewpoint Dewpoint Depression Visibility Wind Speed Wind Dir Waves Ship Positions

Lady Maria Luisa

Last reported at 2014-Oct-20 10:30 UTC. Time now 2014-Oct-20 11:32 UTC.
Position N 22°58' E 113°33'.

Length 224 m; draft 12 m.

Type: Cargo ship. MMSI: 355777000.

Date/timePositionNaut miles runAvg speedWind from/ knotsBaromVisibWave heightAir tempDewpointWater temp
2014-Oct-20 10:30N 22°58' E 113°33'0 0.1
2014-Oct-20 09:30N 22°58' E 113°33'0 0.1
2014-Oct-20 08:30N 22°58' E 113°33'0 0.1
2014-Oct-20 07:30N 22°58' E 113°33'0 0.0
2014-Oct-20 06:30N 22°58' E 113°33'0 0.1
2014-Oct-20 05:24N 22°58' E 113°33'0 0.0
2014-Oct-20 04:30N 22°58' E 113°33'0 0.0
2014-Oct-20 03:24N 22°58' E 113°33'0 0.0
2014-Oct-20 02:30N 22°58' E 113°33'0 0.0
2014-Oct-20 01:30N 22°58' E 113°33'0 0.0
2014-Oct-20 00:30N 22°58' E 113°33'0 0.0
2014-Oct-19 23:18N 22°58' E 113°33'0 0.0
2014-Oct-19 21:24N 22°58' E 113°33'0 0.0
2014-Oct-19 20:30N 22°58' E 113°33'0 0.1
2014-Oct-19 19:24N 22°58' E 113°33'0 0.0
2014-Oct-19 18:30N 22°58' E 113°33'0 0.0
2014-Oct-19 17:30N 22°58' E 113°33'0 0.0
2014-Oct-19 16:33N 22°58' E 113°33'0 0.0
2014-Oct-19 15:33N 22°58' E 113°33'0 0.0
2014-Oct-19 14:33N 22°58' E 113°33'0 0.1
2014-Oct-19 13:33N 22°58' E 113°33'0 0.0
2014-Oct-19 12:32N 22°58' E 113°33'0 0.1
2014-Oct-19 11:33N 22°58' E 113°33'0 0.1
2014-Oct-19 10:33N 22°58' E 113°33'0 0.0
2014-Oct-19 09:33N 22°58' E 113°33'0 0.1
2014-Oct-19 08:33N 22°58' E 113°33'0 0.1
2014-Oct-19 07:32N 22°58' E 113°33'0 0.0
2014-Oct-19 06:33N 22°58' E 113°33'0 0.1
2014-Oct-19 05:33N 22°58' E 113°33'0 0.0
2014-Oct-19 04:33N 22°58' E 113°33'0 0.0
2014-Oct-19 03:33N 22°58' E 113°33'0 0.0
2014-Oct-19 02:33N 22°58' E 113°33'0 0.3
2014-Oct-19 01:33N 22°58' E 113°32'7 7.3
2014-Oct-19 00:33N 22°51' E 113°34'9 8.8
2014-Oct-18 23:33N 22°44' E 113°40'1610.4
2014-Oct-18 22:03N 22°29' E 113°45'611.7
2014-Oct-18 21:32N 22°23' E 113°46'1111.2
2014-Oct-18 20:33N 22°12' E 113°50'8 7.8
2014-Oct-18 19:33N 22°05' E 113°52'1 1.3
2014-Oct-18 18:33N 22°05' E 113°54'0 0.0
2014-Oct-18 16:33N 22°05' E 113°54'0 0.0
2014-Oct-18 15:33N 22°05' E 113°54'0 0.0
2014-Oct-18 14:33N 22°05' E 113°54'0 0.0
2014-Oct-18 13:21N 22°05' E 113°54'0 0.0
2014-Oct-18 09:33N 22°05' E 113°54'0 0.0
2014-Oct-18 08:33N 22°05' E 113°54'0 0.0
2014-Oct-18 05:27N 22°05' E 113°54'0 0.0
2014-Oct-18 04:33N 22°05' E 113°54'0 0.1
2014-Oct-18 03:21N 22°05' E 113°54'1 0.8
2014-Oct-18 02:33N 22°06' E 113°54'  

Dump ship's entire track history